sensor_id;sensor_type;location;lat;lon;timestamp;temperature;humidity
19493;DHT22;9887;54.366;10.958;2024-02-23T00:01:29;10.40;99.90
19493;DHT22;9887;54.366;10.958;2024-02-23T00:03:57;10.40;99.90
19493;DHT22;9887;54.366;10.958;2024-02-23T00:06:25;10.40;99.90
19493;DHT22;9887;54.366;10.958;2024-02-23T00:08:54;10.40;99.90
19493;DHT22;9887;54.366;10.958;2024-02-23T00:11:23;10.40;99.90
19493;DHT22;9887;54.366;10.958;2024-02-23T00:13:53;10.40;99.90
19493;DHT22;9887;54.366;10.958;2024-02-23T00:16:20;10.40;99.90
19493;DHT22;9887;54.366;10.958;2024-02-23T00:18:48;10.40;99.90
19493;DHT22;9887;54.366;10.958;2024-02-23T00:21:16;10.40;99.90
19493;DHT22;9887;54.366;10.958;2024-02-23T00:23:44;10.40;99.90
19493;DHT22;9887;54.366;10.958;2024-02-23T00:26:12;10.40;99.90
19493;DHT22;9887;54.366;10.958;2024-02-23T00:28:40;10.40;99.90
19493;DHT22;9887;54.366;10.958;2024-02-23T00:31:09;10.40;99.90
19493;DHT22;9887;54.366;10.958;2024-02-23T00:33:37;10.40;99.90
19493;DHT22;9887;54.366;10.958;2024-02-23T00:36:09;10.40;99.90
19493;DHT22;9887;54.366;10.958;2024-02-23T00:38:37;10.30;99.90
19493;DHT22;9887;54.366;10.958;2024-02-23T00:41:06;10.30;99.90
19493;DHT22;9887;54.366;10.958;2024-02-23T00:43:38;10.30;99.90
19493;DHT22;9887;54.366;10.958;2024-02-23T00:46:06;10.30;99.90
19493;DHT22;9887;54.366;10.958;2024-02-23T00:48:35;10.30;99.90
19493;DHT22;9887;54.366;10.958;2024-02-23T00:51:03;10.20;99.90
19493;DHT22;9887;54.366;10.958;2024-02-23T00:53:32;10.20;99.90
19493;DHT22;9887;54.366;10.958;2024-02-23T00:56:00;10.20;99.90
19493;DHT22;9887;54.366;10.958;2024-02-23T00:58:27;10.10;99.90
19493;DHT22;9887;54.366;10.958;2024-02-23T01:00:55;10.10;99.90
19493;DHT22;9887;54.366;10.958;2024-02-23T01:03:23;10.00;99.90
19493;DHT22;9887;54.366;10.958;2024-02-23T01:05:52;10.00;99.90
19493;DHT22;9887;54.366;10.958;2024-02-23T01:08:20;10.00;99.90
19493;DHT22;9887;54.366;10.958;2024-02-23T01:10:48;9.90;99.90
19493;DHT22;9887;54.366;10.958;2024-02-23T01:13:17;9.90;99.90
19493;DHT22;9887;54.366;10.958;2024-02-23T01:15:45;9.90;99.90
19493;DHT22;9887;54.366;10.958;2024-02-23T01:18:13;9.80;99.90
19493;DHT22;9887;54.366;10.958;2024-02-23T01:20:41;9.80;99.90
19493;DHT22;9887;54.366;10.958;2024-02-23T01:23:10;9.80;99.90
19493;DHT22;9887;54.366;10.958;2024-02-23T01:25:38;9.70;99.90
19493;DHT22;9887;54.366;10.958;2024-02-23T01:28:06;9.70;99.90
19493;DHT22;9887;54.366;10.958;2024-02-23T01:30:34;9.70;99.90
19493;DHT22;9887;54.366;10.958;2024-02-23T01:33:02;9.60;99.90
19493;DHT22;9887;54.366;10.958;2024-02-23T01:35:30;9.60;99.90
19493;DHT22;9887;54.366;10.958;2024-02-23T01:37:58;9.60;99.90
19493;DHT22;9887;54.366;10.958;2024-02-23T01:40:27;9.60;99.90
19493;DHT22;9887;54.366;10.958;2024-02-23T01:43:02;9.50;99.90
19493;DHT22;9887;54.366;10.958;2024-02-23T01:45:30;9.50;99.90
19493;DHT22;9887;54.366;10.958;2024-02-23T01:47:59;9.50;99.90
19493;DHT22;9887;54.366;10.958;2024-02-23T01:50:29;9.50;99.90
19493;DHT22;9887;54.366;10.958;2024-02-23T01:53:00;9.40;99.90
19493;DHT22;9887;54.366;10.958;2024-02-23T01:55:30;9.40;99.90
19493;DHT22;9887;54.366;10.958;2024-02-23T01:58:02;9.40;99.90
19493;DHT22;9887;54.366;10.958;2024-02-23T02:00:35;9.30;99.90
19493;DHT22;9887;54.366;10.958;2024-02-23T02:03:04;9.30;99.90
19493;DHT22;9887;54.366;10.958;2024-02-23T02:05:37;9.30;99.90
19493;DHT22;9887;54.366;10.958;2024-02-23T02:08:05;9.20;99.90
19493;DHT22;9887;54.366;10.958;2024-02-23T02:10:35;9.20;99.90
19493;DHT22;9887;54.366;10.958;2024-02-23T02:13:03;9.10;99.90
19493;DHT22;9887;54.366;10.958;2024-02-23T02:15:32;9.10;99.90
19493;DHT22;9887;54.366;10.958;2024-02-23T02:18:00;9.10;99.90
19493;DHT22;9887;54.366;10.958;2024-02-23T02:20:28;9.10;99.90
19493;DHT22;9887;54.366;10.958;2024-02-23T02:22:59;9.00;99.90
19493;DHT22;9887;54.366;10.958;2024-02-23T02:25:27;9.00;99.90
19493;DHT22;9887;54.366;10.958;2024-02-23T02:27:56;9.00;99.90
19493;DHT22;9887;54.366;10.958;2024-02-23T02:30:24;8.90;99.90
19493;DHT22;9887;54.366;10.958;2024-02-23T02:32:52;8.90;99.90
19493;DHT22;9887;54.366;10.958;2024-02-23T02:35:20;8.80;99.90
19493;DHT22;9887;54.366;10.958;2024-02-23T02:37:48;8.80;99.90
19493;DHT22;9887;54.366;10.958;2024-02-23T02:40:16;8.80;99.90
19493;DHT22;9887;54.366;10.958;2024-02-23T02:42:44;8.80;99.90
19493;DHT22;9887;54.366;10.958;2024-02-23T02:45:15;8.70;99.90
19493;DHT22;9887;54.366;10.958;2024-02-23T02:47:46;8.70;99.90
19493;DHT22;9887;54.366;10.958;2024-02-23T02:50:14;8.70;99.90
19493;DHT22;9887;54.366;10.958;2024-02-23T02:52:44;8.70;99.90
19493;DHT22;9887;54.366;10.958;2024-02-23T02:55:13;8.60;99.90
19493;DHT22;9887;54.366;10.958;2024-02-23T02:57:41;8.60;99.90
19493;DHT22;9887;54.366;10.958;2024-02-23T03:00:10;8.60;99.90
19493;DHT22;9887;54.366;10.958;2024-02-23T03:02:40;8.60;99.90
19493;DHT22;9887;54.366;10.958;2024-02-23T03:05:08;8.50;99.90
19493;DHT22;9887;54.366;10.958;2024-02-23T03:07:36;8.50;99.90
19493;DHT22;9887;54.366;10.958;2024-02-23T03:10:05;8.50;99.90
19493;DHT22;9887;54.366;10.958;2024-02-23T03:12:33;8.50;99.90
19493;DHT22;9887;54.366;10.958;2024-02-23T03:15:01;8.40;99.90
19493;DHT22;9887;54.366;10.958;2024-02-23T03:17:30;8.40;99.90
19493;DHT22;9887;54.366;10.958;2024-02-23T03:19:59;8.40;99.90
19493;DHT22;9887;54.366;10.958;2024-02-23T03:22:29;8.30;99.90
19493;DHT22;9887;54.366;10.958;2024-02-23T03:24:56;8.30;99.90
19493;DHT22;9887;54.366;10.958;2024-02-23T03:27:28;8.30;99.90
19493;DHT22;9887;54.366;10.958;2024-02-23T03:29:56;8.30;99.90
19493;DHT22;9887;54.366;10.958;2024-02-23T03:32:24;8.30;99.90
19493;DHT22;9887;54.366;10.958;2024-02-23T03:34:52;8.20;99.90
19493;DHT22;9887;54.366;10.958;2024-02-23T03:37:21;8.20;99.90
19493;DHT22;9887;54.366;10.958;2024-02-23T03:39:49;8.20;99.90
19493;DHT22;9887;54.366;10.958;2024-02-23T03:42:16;8.20;99.90
19493;DHT22;9887;54.366;10.958;2024-02-23T03:44:44;8.20;99.90
19493;DHT22;9887;54.366;10.958;2024-02-23T03:47:12;8.10;99.90
19493;DHT22;9887;54.366;10.958;2024-02-23T03:49:40;8.10;99.90
19493;DHT22;9887;54.366;10.958;2024-02-23T03:52:08;8.10;99.90
19493;DHT22;9887;54.366;10.958;2024-02-23T03:54:37;8.10;99.90
19493;DHT22;9887;54.366;10.958;2024-02-23T03:57:05;8.00;99.90
19493;DHT22;9887;54.366;10.958;2024-02-23T03:59:35;8.00;99.90
19493;DHT22;9887;54.366;10.958;2024-02-23T04:02:03;8.00;99.90
19493;DHT22;9887;54.366;10.958;2024-02-23T04:04:31;8.00;99.90
19493;DHT22;9887;54.366;10.958;2024-02-23T04:06:59;8.00;99.90
19493;DHT22;9887;54.366;10.958;2024-02-23T04:09:27;7.90;99.90
19493;DHT22;9887;54.366;10.958;2024-02-23T04:11:57;7.90;99.90
19493;DHT22;9887;54.366;10.958;2024-02-23T04:14:25;7.90;99.90
19493;DHT22;9887;54.366;10.958;2024-02-23T04:16:53;7.90;99.90
19493;DHT22;9887;54.366;10.958;2024-02-23T04:19:21;7.90;99.90
19493;DHT22;9887;54.366;10.958;2024-02-23T04:21:49;7.80;99.90
19493;DHT22;9887;54.366;10.958;2024-02-23T04:24:17;7.80;99.90
19493;DHT22;9887;54.366;10.958;2024-02-23T04:26:45;7.80;99.90
19493;DHT22;9887;54.366;10.958;2024-02-23T04:29:14;7.80;99.90
19493;DHT22;9887;54.366;10.958;2024-02-23T04:31:42;7.80;99.90
19493;DHT22;9887;54.366;10.958;2024-02-23T04:34:09;7.70;99.90
19493;DHT22;9887;54.366;10.958;2024-02-23T04:36:37;7.70;99.90
19493;DHT22;9887;54.366;10.958;2024-02-23T04:39:05;7.70;99.90
19493;DHT22;9887;54.366;10.958;2024-02-23T04:41:33;7.70;99.90
19493;DHT22;9887;54.366;10.958;2024-02-23T04:44:01;7.70;99.90
19493;DHT22;9887;54.366;10.958;2024-02-23T04:46:32;7.70;99.90
19493;DHT22;9887;54.366;10.958;2024-02-23T04:49:01;7.70;99.90
19493;DHT22;9887;54.366;10.958;2024-02-23T04:51:29;7.70;99.90
19493;DHT22;9887;54.366;10.958;2024-02-23T04:53:57;7.60;99.90
19493;DHT22;9887;54.366;10.958;2024-02-23T04:56:25;7.60;99.90
19493;DHT22;9887;54.366;10.958;2024-02-23T04:58:52;7.60;99.90
19493;DHT22;9887;54.366;10.958;2024-02-23T05:01:21;7.60;99.90
19493;DHT22;9887;54.366;10.958;2024-02-23T05:03:50;7.60;99.90
19493;DHT22;9887;54.366;10.958;2024-02-23T05:06:18;7.50;99.90
19493;DHT22;9887;54.366;10.958;2024-02-23T05:08:46;7.50;99.90
19493;DHT22;9887;54.366;10.958;2024-02-23T05:11:14;7.50;99.90
19493;DHT22;9887;54.366;10.958;2024-02-23T05:13:43;7.50;99.90
19493;DHT22;9887;54.366;10.958;2024-02-23T05:16:11;7.50;99.90
19493;DHT22;9887;54.366;10.958;2024-02-23T05:18:39;7.50;99.90
19493;DHT22;9887;54.366;10.958;2024-02-23T05:21:09;7.50;99.90
19493;DHT22;9887;54.366;10.958;2024-02-23T05:23:37;7.50;99.90
19493;DHT22;9887;54.366;10.958;2024-02-23T05:26:05;7.40;99.90
19493;DHT22;9887;54.366;10.958;2024-02-23T05:28:34;7.40;99.90
19493;DHT22;9887;54.366;10.958;2024-02-23T05:31:02;7.40;99.90
19493;DHT22;9887;54.366;10.958;2024-02-23T05:33:31;7.40;99.90
19493;DHT22;9887;54.366;10.958;2024-02-23T05:35:59;7.40;99.90
19493;DHT22;9887;54.366;10.958;2024-02-23T05:38:28;7.40;99.90
19493;DHT22;9887;54.366;10.958;2024-02-23T05:40:56;7.40;99.90
19493;DHT22;9887;54.366;10.958;2024-02-23T05:43:23;7.40;99.90
19493;DHT22;9887;54.366;10.958;2024-02-23T05:45:54;7.30;99.90
19493;DHT22;9887;54.366;10.958;2024-02-23T05:48:25;7.30;99.90
19493;DHT22;9887;54.366;10.958;2024-02-23T05:50:53;7.30;99.90
19493;DHT22;9887;54.366;10.958;2024-02-23T05:53:21;7.30;99.90
19493;DHT22;9887;54.366;10.958;2024-02-23T05:55:50;7.30;99.90
19493;DHT22;9887;54.366;10.958;2024-02-23T05:58:18;7.20;99.90
19493;DHT22;9887;54.366;10.958;2024-02-23T06:00:47;7.30;99.90
19493;DHT22;9887;54.366;10.958;2024-02-23T06:03:16;7.20;99.90
19493;DHT22;9887;54.366;10.958;2024-02-23T06:05:45;7.20;99.90
19493;DHT22;9887;54.366;10.958;2024-02-23T06:08:13;7.20;99.90
19493;DHT22;9887;54.366;10.958;2024-02-23T06:10:41;7.20;99.90
19493;DHT22;9887;54.366;10.958;2024-02-23T06:13:11;7.20;99.90
19493;DHT22;9887;54.366;10.958;2024-02-23T06:15:39;7.20;99.90
19493;DHT22;9887;54.366;10.958;2024-02-23T06:18:07;7.20;99.90
19493;DHT22;9887;54.366;10.958;2024-02-23T06:20:35;7.10;99.90
19493;DHT22;9887;54.366;10.958;2024-02-23T06:23:03;7.10;99.90
19493;DHT22;9887;54.366;10.958;2024-02-23T06:25:31;7.10;99.90
19493;DHT22;9887;54.366;10.958;2024-02-23T06:27:59;7.10;99.90
19493;DHT22;9887;54.366;10.958;2024-02-23T06:30:28;7.00;99.90
19493;DHT22;9887;54.366;10.958;2024-02-23T06:32:56;7.10;99.90
19493;DHT22;9887;54.366;10.958;2024-02-23T06:35:24;7.10;99.90
19493;DHT22;9887;54.366;10.958;2024-02-23T06:37:52;7.10;99.90
19493;DHT22;9887;54.366;10.958;2024-02-23T06:40:20;7.00;99.90
19493;DHT22;9887;54.366;10.958;2024-02-23T06:42:49;7.00;99.90
19493;DHT22;9887;54.366;10.958;2024-02-23T06:45:17;7.00;99.90
19493;DHT22;9887;54.366;10.958;2024-02-23T06:47:47;7.00;99.90
19493;DHT22;9887;54.366;10.958;2024-02-23T06:50:15;7.00;99.90
19493;DHT22;9887;54.366;10.958;2024-02-23T06:52:43;7.00;99.90
19493;DHT22;9887;54.366;10.958;2024-02-23T06:55:11;7.00;99.90
19493;DHT22;9887;54.366;10.958;2024-02-23T06:57:39;7.00;99.90
19493;DHT22;9887;54.366;10.958;2024-02-23T07:00:08;6.90;99.90
19493;DHT22;9887;54.366;10.958;2024-02-23T07:02:37;6.90;99.90
19493;DHT22;9887;54.366;10.958;2024-02-23T07:05:07;6.90;99.90
19493;DHT22;9887;54.366;10.958;2024-02-23T07:07:35;6.90;99.90
19493;DHT22;9887;54.366;10.958;2024-02-23T07:10:04;6.90;99.90
19493;DHT22;9887;54.366;10.958;2024-02-23T07:12:32;6.90;99.90
19493;DHT22;9887;54.366;10.958;2024-02-23T07:15:00;6.90;99.90
19493;DHT22;9887;54.366;10.958;2024-02-23T07:17:29;6.90;99.90
19493;DHT22;9887;54.366;10.958;2024-02-23T07:19:57;6.90;99.90
19493;DHT22;9887;54.366;10.958;2024-02-23T07:22:36;6.90;99.90
19493;DHT22;9887;54.366;10.958;2024-02-23T07:25:05;6.90;99.90
19493;DHT22;9887;54.366;10.958;2024-02-23T07:27:33;6.90;99.90
19493;DHT22;9887;54.366;10.958;2024-02-23T07:30:02;6.90;99.90
19493;DHT22;9887;54.366;10.958;2024-02-23T07:32:32;6.90;99.90
19493;DHT22;9887;54.366;10.958;2024-02-23T07:35:01;6.90;99.90
19493;DHT22;9887;54.366;10.958;2024-02-23T07:37:30;6.90;99.90
19493;DHT22;9887;54.366;10.958;2024-02-23T07:39:59;6.90;99.90
19493;DHT22;9887;54.366;10.958;2024-02-23T07:42:27;6.90;99.90
19493;DHT22;9887;54.366;10.958;2024-02-23T07:44:55;6.90;99.90
19493;DHT22;9887;54.366;10.958;2024-02-23T07:47:25;6.90;99.90
19493;DHT22;9887;54.366;10.958;2024-02-23T07:49:54;6.90;99.90
19493;DHT22;9887;54.366;10.958;2024-02-23T07:52:22;6.90;99.90
19493;DHT22;9887;54.366;10.958;2024-02-23T07:54:51;6.90;99.90
19493;DHT22;9887;54.366;10.958;2024-02-23T07:57:20;6.90;99.90
19493;DHT22;9887;54.366;10.958;2024-02-23T07:59:48;6.90;99.90
19493;DHT22;9887;54.366;10.958;2024-02-23T08:02:16;6.90;99.90
19493;DHT22;9887;54.366;10.958;2024-02-23T08:04:44;6.90;99.90
19493;DHT22;9887;54.366;10.958;2024-02-23T08:07:14;6.90;99.90
19493;DHT22;9887;54.366;10.958;2024-02-23T08:09:42;6.90;99.90
19493;DHT22;9887;54.366;10.958;2024-02-23T08:12:11;6.90;99.90
19493;DHT22;9887;54.366;10.958;2024-02-23T08:14:42;6.90;99.90
19493;DHT22;9887;54.366;10.958;2024-02-23T08:17:10;6.90;99.90
19493;DHT22;9887;54.366;10.958;2024-02-23T08:19:38;6.90;99.90
19493;DHT22;9887;54.366;10.958;2024-02-23T08:22:06;6.90;99.90
19493;DHT22;9887;54.366;10.958;2024-02-23T08:24:34;6.90;99.90
19493;DHT22;9887;54.366;10.958;2024-02-23T08:27:02;6.90;99.90
19493;DHT22;9887;54.366;10.958;2024-02-23T08:29:30;6.90;99.90
19493;DHT22;9887;54.366;10.958;2024-02-23T08:32:00;6.90;99.90
19493;DHT22;9887;54.366;10.958;2024-02-23T08:34:28;6.90;99.90
19493;DHT22;9887;54.366;10.958;2024-02-23T08:36:58;6.90;99.90
19493;DHT22;9887;54.366;10.958;2024-02-23T08:39:26;6.90;99.90
19493;DHT22;9887;54.366;10.958;2024-02-23T08:41:54;6.90;99.90
19493;DHT22;9887;54.366;10.958;2024-02-23T08:44:22;7.00;99.90
19493;DHT22;9887;54.366;10.958;2024-02-23T08:46:49;7.00;99.90
19493;DHT22;9887;54.366;10.958;2024-02-23T08:49:19;7.00;99.90
19493;DHT22;9887;54.366;10.958;2024-02-23T08:51:47;7.00;99.90
19493;DHT22;9887;54.366;10.958;2024-02-23T08:54:15;7.00;99.90
19493;DHT22;9887;54.366;10.958;2024-02-23T08:56:43;7.00;99.90
19493;DHT22;9887;54.366;10.958;2024-02-23T08:59:11;7.00;99.90
19493;DHT22;9887;54.366;10.958;2024-02-23T09:01:39;7.00;99.90
19493;DHT22;9887;54.366;10.958;2024-02-23T09:04:07;7.00;99.90
19493;DHT22;9887;54.366;10.958;2024-02-23T09:06:36;7.00;99.90
19493;DHT22;9887;54.366;10.958;2024-02-23T09:09:06;7.00;99.90
19493;DHT22;9887;54.366;10.958;2024-02-23T09:11:33;7.10;99.90
19493;DHT22;9887;54.366;10.958;2024-02-23T09:14:03;7.10;99.90
19493;DHT22;9887;54.366;10.958;2024-02-23T09:16:31;7.10;99.90
19493;DHT22;9887;54.366;10.958;2024-02-23T09:18:59;7.10;99.90
19493;DHT22;9887;54.366;10.958;2024-02-23T09:21:27;7.20;99.90
19493;DHT22;9887;54.366;10.958;2024-02-23T09:23:56;7.20;99.90
19493;DHT22;9887;54.366;10.958;2024-02-23T09:26:24;7.20;99.90
19493;DHT22;9887;54.366;10.958;2024-02-23T09:28:53;7.20;99.90
19493;DHT22;9887;54.366;10.958;2024-02-23T09:31:21;7.20;99.90
19493;DHT22;9887;54.366;10.958;2024-02-23T09:33:49;7.20;99.90
19493;DHT22;9887;54.366;10.958;2024-02-23T09:36:18;7.30;99.90
19493;DHT22;9887;54.366;10.958;2024-02-23T09:38:45;7.30;99.90
19493;DHT22;9887;54.366;10.958;2024-02-23T09:41:19;7.30;99.90
19493;DHT22;9887;54.366;10.958;2024-02-23T09:43:48;7.30;99.90
19493;DHT22;9887;54.366;10.958;2024-02-23T09:46:17;7.30;99.90
19493;DHT22;9887;54.366;10.958;2024-02-23T09:48:47;7.40;99.90
19493;DHT22;9887;54.366;10.958;2024-02-23T09:51:16;7.40;99.90
19493;DHT22;9887;54.366;10.958;2024-02-23T09:53:45;7.40;99.90
19493;DHT22;9887;54.366;10.958;2024-02-23T09:56:18;7.40;99.90
19493;DHT22;9887;54.366;10.958;2024-02-23T09:58:47;7.50;99.90
19493;DHT22;9887;54.366;10.958;2024-02-23T10:01:22;7.50;99.90
19493;DHT22;9887;54.366;10.958;2024-02-23T10:03:54;7.50;99.90
19493;DHT22;9887;54.366;10.958;2024-02-23T10:06:23;7.60;99.90
19493;DHT22;9887;54.366;10.958;2024-02-23T10:08:51;7.60;99.90
19493;DHT22;9887;54.366;10.958;2024-02-23T10:11:24;7.60;99.90
19493;DHT22;9887;54.366;10.958;2024-02-23T10:13:52;7.70;99.90
19493;DHT22;9887;54.366;10.958;2024-02-23T10:16:21;7.70;99.90
19493;DHT22;9887;54.366;10.958;2024-02-23T10:18:50;7.70;99.90
19493;DHT22;9887;54.366;10.958;2024-02-23T10:21:18;7.80;99.90
19493;DHT22;9887;54.366;10.958;2024-02-23T10:23:47;7.80;99.90
19493;DHT22;9887;54.366;10.958;2024-02-23T10:26:17;7.80;99.90
19493;DHT22;9887;54.366;10.958;2024-02-23T10:28:47;7.90;99.90
19493;DHT22;9887;54.366;10.958;2024-02-23T10:31:17;7.90;99.90
19493;DHT22;9887;54.366;10.958;2024-02-23T10:33:45;7.90;99.90
19493;DHT22;9887;54.366;10.958;2024-02-23T10:36:15;7.90;99.90
19493;DHT22;9887;54.366;10.958;2024-02-23T10:38:45;8.00;99.90
19493;DHT22;9887;54.366;10.958;2024-02-23T10:41:14;8.00;99.90
19493;DHT22;9887;54.366;10.958;2024-02-23T10:43:47;8.00;99.90
19493;DHT22;9887;54.366;10.958;2024-02-23T10:46:18;8.00;99.90
19493;DHT22;9887;54.366;10.958;2024-02-23T10:48:48;8.00;99.90
19493;DHT22;9887;54.366;10.958;2024-02-23T10:51:19;8.00;99.90
19493;DHT22;9887;54.366;10.958;2024-02-23T10:53:48;8.10;99.90
19493;DHT22;9887;54.366;10.958;2024-02-23T10:56:17;8.00;99.90
19493;DHT22;9887;54.366;10.958;2024-02-23T10:58:45;8.10;99.90
19493;DHT22;9887;54.366;10.958;2024-02-23T11:01:13;8.10;99.90
19493;DHT22;9887;54.366;10.958;2024-02-23T11:03:44;8.10;99.90
19493;DHT22;9887;54.366;10.958;2024-02-23T11:06:16;8.10;99.90
19493;DHT22;9887;54.366;10.958;2024-02-23T11:08:49;8.20;99.90
19493;DHT22;9887;54.366;10.958;2024-02-23T11:11:18;8.20;99.90
19493;DHT22;9887;54.366;10.958;2024-02-23T11:13:46;8.20;99.90
19493;DHT22;9887;54.366;10.958;2024-02-23T11:16:22;8.30;99.90
19493;DHT22;9887;54.366;10.958;2024-02-23T11:19:03;8.30;99.90
19493;DHT22;9887;54.366;10.958;2024-02-23T11:21:35;8.30;99.90
19493;DHT22;9887;54.366;10.958;2024-02-23T11:24:05;8.40;99.90
19493;DHT22;9887;54.366;10.958;2024-02-23T11:26:32;8.40;99.90
19493;DHT22;9887;54.366;10.958;2024-02-23T11:29:10;8.40;99.90
19493;DHT22;9887;54.366;10.958;2024-02-23T11:31:44;8.40;99.90
19493;DHT22;9887;54.366;10.958;2024-02-23T11:34:13;8.50;99.90
19493;DHT22;9887;54.366;10.958;2024-02-23T11:36:51;8.50;99.90
19493;DHT22;9887;54.366;10.958;2024-02-23T11:39:19;8.50;99.90
19493;DHT22;9887;54.366;10.958;2024-02-23T11:41:48;8.50;99.90
19493;DHT22;9887;54.366;10.958;2024-02-23T11:44:17;8.60;99.90
19493;DHT22;9887;54.366;10.958;2024-02-23T11:46:46;8.60;99.90
19493;DHT22;9887;54.366;10.958;2024-02-23T11:49:15;8.60;99.90
19493;DHT22;9887;54.366;10.958;2024-02-23T11:51:43;8.60;99.90
19493;DHT22;9887;54.366;10.958;2024-02-23T11:54:12;8.70;99.90
19493;DHT22;9887;54.366;10.958;2024-02-23T11:56:40;8.70;99.90
19493;DHT22;9887;54.366;10.958;2024-02-23T11:59:08;8.70;99.90
19493;DHT22;9887;54.366;10.958;2024-02-23T12:01:37;8.70;99.90
19493;DHT22;9887;54.366;10.958;2024-02-23T12:04:05;8.80;99.90
19493;DHT22;9887;54.366;10.958;2024-02-23T12:06:39;8.80;99.90
19493;DHT22;9887;54.366;10.958;2024-02-23T12:09:18;8.80;99.90
19493;DHT22;9887;54.366;10.958;2024-02-23T12:11:47;8.80;99.90
19493;DHT22;9887;54.366;10.958;2024-02-23T12:14:15;8.90;99.90
19493;DHT22;9887;54.366;10.958;2024-02-23T12:16:43;8.90;99.90
19493;DHT22;9887;54.366;10.958;2024-02-23T12:19:11;8.90;99.90
19493;DHT22;9887;54.366;10.958;2024-02-23T12:21:40;8.90;99.90
19493;DHT22;9887;54.366;10.958;2024-02-23T12:24:12;8.90;99.90
19493;DHT22;9887;54.366;10.958;2024-02-23T12:26:40;8.90;99.90
19493;DHT22;9887;54.366;10.958;2024-02-23T12:29:09;8.90;99.90
19493;DHT22;9887;54.366;10.958;2024-02-23T12:31:37;8.90;99.90
19493;DHT22;9887;54.366;10.958;2024-02-23T12:34:05;8.90;99.90
19493;DHT22;9887;54.366;10.958;2024-02-23T12:36:36;8.90;99.90
19493;DHT22;9887;54.366;10.958;2024-02-23T12:39:05;9.00;99.90
19493;DHT22;9887;54.366;10.958;2024-02-23T12:41:33;9.00;99.90
19493;DHT22;9887;54.366;10.958;2024-02-23T12:44:01;9.00;99.90
19493;DHT22;9887;54.366;10.958;2024-02-23T12:46:29;9.00;99.90
19493;DHT22;9887;54.366;10.958;2024-02-23T12:48:57;9.00;99.90
19493;DHT22;9887;54.366;10.958;2024-02-23T12:51:25;9.00;99.90
19493;DHT22;9887;54.366;10.958;2024-02-23T12:53:54;9.00;99.90
19493;DHT22;9887;54.366;10.958;2024-02-23T12:56:23;9.00;99.90
19493;DHT22;9887;54.366;10.958;2024-02-23T12:58:52;9.10;99.90
19493;DHT22;9887;54.366;10.958;2024-02-23T13:01:21;9.10;99.90
19493;DHT22;9887;54.366;10.958;2024-02-23T13:03:49;9.10;99.90
19493;DHT22;9887;54.366;10.958;2024-02-23T13:06:17;9.10;99.90
19493;DHT22;9887;54.366;10.958;2024-02-23T13:08:44;9.10;99.90
19493;DHT22;9887;54.366;10.958;2024-02-23T13:11:13;9.10;99.90
19493;DHT22;9887;54.366;10.958;2024-02-23T13:13:42;9.10;99.90
19493;DHT22;9887;54.366;10.958;2024-02-23T13:16:10;9.10;99.90
19493;DHT22;9887;54.366;10.958;2024-02-23T13:18:42;9.10;99.90
19493;DHT22;9887;54.366;10.958;2024-02-23T13:21:11;9.10;99.90
19493;DHT22;9887;54.366;10.958;2024-02-23T13:23:39;9.10;99.90
19493;DHT22;9887;54.366;10.958;2024-02-23T13:26:08;9.10;99.90
19493;DHT22;9887;54.366;10.958;2024-02-23T13:28:39;9.10;99.90
19493;DHT22;9887;54.366;10.958;2024-02-23T13:31:08;9.10;99.90
19493;DHT22;9887;54.366;10.958;2024-02-23T13:33:36;9.10;99.90
19493;DHT22;9887;54.366;10.958;2024-02-23T13:36:05;9.10;99.90
19493;DHT22;9887;54.366;10.958;2024-02-23T13:38:33;9.10;99.90
19493;DHT22;9887;54.366;10.958;2024-02-23T13:41:05;9.10;99.90
19493;DHT22;9887;54.366;10.958;2024-02-23T13:43:33;9.10;99.90
19493;DHT22;9887;54.366;10.958;2024-02-23T13:46:01;9.10;99.90
19493;DHT22;9887;54.366;10.958;2024-02-23T13:48:32;9.10;99.90
19493;DHT22;9887;54.366;10.958;2024-02-23T13:51:00;9.10;99.90
19493;DHT22;9887;54.366;10.958;2024-02-23T13:53:30;9.00;99.90
19493;DHT22;9887;54.366;10.958;2024-02-23T13:55:58;9.00;99.90
19493;DHT22;9887;54.366;10.958;2024-02-23T13:58:27;9.00;99.90
19493;DHT22;9887;54.366;10.958;2024-02-23T14:00:55;9.00;99.90
19493;DHT22;9887;54.366;10.958;2024-02-23T14:03:23;9.00;99.90
19493;DHT22;9887;54.366;10.958;2024-02-23T14:05:52;9.00;99.90
19493;DHT22;9887;54.366;10.958;2024-02-23T14:08:20;9.00;99.90
19493;DHT22;9887;54.366;10.958;2024-02-23T14:10:48;9.00;99.90
19493;DHT22;9887;54.366;10.958;2024-02-23T14:13:16;9.00;99.90
19493;DHT22;9887;54.366;10.958;2024-02-23T14:15:44;9.00;99.90
19493;DHT22;9887;54.366;10.958;2024-02-23T14:18:12;8.90;99.90
19493;DHT22;9887;54.366;10.958;2024-02-23T14:20:40;8.90;99.90
19493;DHT22;9887;54.366;10.958;2024-02-23T14:23:09;8.90;99.90
19493;DHT22;9887;54.366;10.958;2024-02-23T14:25:37;8.90;99.90
19493;DHT22;9887;54.366;10.958;2024-02-23T14:28:05;8.90;99.90
19493;DHT22;9887;54.366;10.958;2024-02-23T14:30:33;8.90;99.90
19493;DHT22;9887;54.366;10.958;2024-02-23T14:33:02;8.90;99.90
19493;DHT22;9887;54.366;10.958;2024-02-23T14:35:30;8.90;99.90
19493;DHT22;9887;54.366;10.958;2024-02-23T14:37:58;8.90;99.90
19493;DHT22;9887;54.366;10.958;2024-02-23T14:40:27;8.90;99.90
19493;DHT22;9887;54.366;10.958;2024-02-23T14:42:55;8.90;99.90
19493;DHT22;9887;54.366;10.958;2024-02-23T14:45:23;8.90;99.90
19493;DHT22;9887;54.366;10.958;2024-02-23T14:47:51;8.90;99.90
19493;DHT22;9887;54.366;10.958;2024-02-23T14:50:19;8.80;99.90
19493;DHT22;9887;54.366;10.958;2024-02-23T14:52:47;8.80;99.90
19493;DHT22;9887;54.366;10.958;2024-02-23T14:55:15;8.80;99.90
19493;DHT22;9887;54.366;10.958;2024-02-23T14:57:44;8.80;99.90
19493;DHT22;9887;54.366;10.958;2024-02-23T15:00:13;8.80;99.90
19493;DHT22;9887;54.366;10.958;2024-02-23T15:02:41;8.80;99.90
19493;DHT22;9887;54.366;10.958;2024-02-23T15:05:09;8.80;99.90
19493;DHT22;9887;54.366;10.958;2024-02-23T15:07:37;8.80;99.90
19493;DHT22;9887;54.366;10.958;2024-02-23T15:10:06;8.80;99.90
19493;DHT22;9887;54.366;10.958;2024-02-23T15:12:36;8.70;99.90
19493;DHT22;9887;54.366;10.958;2024-02-23T15:15:06;8.70;99.90
19493;DHT22;9887;54.366;10.958;2024-02-23T15:17:35;8.70;99.90
19493;DHT22;9887;54.366;10.958;2024-02-23T15:20:04;8.70;99.90
19493;DHT22;9887;54.366;10.958;2024-02-23T15:22:32;8.70;99.90
19493;DHT22;9887;54.366;10.958;2024-02-23T15:25:00;8.70;99.90
19493;DHT22;9887;54.366;10.958;2024-02-23T15:27:31;8.70;99.90
19493;DHT22;9887;54.366;10.958;2024-02-23T15:29:58;8.70;99.90
19493;DHT22;9887;54.366;10.958;2024-02-23T15:32:28;8.70;99.90
19493;DHT22;9887;54.366;10.958;2024-02-23T15:34:55;8.60;99.90
19493;DHT22;9887;54.366;10.958;2024-02-23T15:37:24;8.60;99.90
19493;DHT22;9887;54.366;10.958;2024-02-23T15:39:51;8.60;99.90
19493;DHT22;9887;54.366;10.958;2024-02-23T15:42:19;8.60;99.90
19493;DHT22;9887;54.366;10.958;2024-02-23T15:44:48;8.60;99.90
19493;DHT22;9887;54.366;10.958;2024-02-23T15:47:16;8.60;99.90
19493;DHT22;9887;54.366;10.958;2024-02-23T15:49:45;8.60;99.90
19493;DHT22;9887;54.366;10.958;2024-02-23T15:52:33;8.60;99.90
19493;DHT22;9887;54.366;10.958;2024-02-23T15:55:01;8.60;99.90